ブエノスアイレス/エセイサ の空港の天気 - METARとTAF

エセイサ国際空港 ( SAEZ / EZE ) - アルゼンチン ブエノスアイレス州、Ezeiza
飛行場実況気象(Metar)
観測時間05/26 17:00 ART (05/26 20:00 UTC)
風向・風速西南西 2m/s
視程10km以上
天気現象
なし
気温16℃
湿度59%
気圧1016hPa
METARSAEZ 262000Z 24003KT CAVOK 16/08 Q1016 NOSIG
過去の天気等 Google飛行場航空写真 Wunderground天気予報

過去48時間のMETAR

飛行場予報(TAF)
発表時間: 5/26 09:00 ART (5/26 12:00 UTC)
予報対象時間: 26日10時 ART ~ 27日9時 ART
風向・風速西南西 3m/s
視程10km以上
全天の8割程度の雲 雲底高度 240m
26日11時 ART ~ 26日13時 ART に徐々に
全天の4割程度の雲 雲底高度 610m
26日19時 ART ~ 26日21時 ART に徐々に
風向・風速北 3m/s
視程10km以上
なし
TAF AMD SAEZ 261200Z 2613/2712 25005KT 9999 BKN008 TX16/2618Z TN08/2710Z
BECMG 2614/2616 SCT020
BECMG 2622/2700 36005KT CAVOK